sensor_id;sensor_type;location;lat;lon;timestamp;P1;durP1;ratioP1;P2;durP2;ratioP2
71343;SDS011;59146;43.850;25.948;2023-03-03T00:01:28;54.50;;;29.52;;
71343;SDS011;59146;43.850;25.948;2023-03-03T00:03:54;48.15;;;27.98;;
71343;SDS011;59146;43.850;25.948;2023-03-03T00:06:20;50.25;;;30.10;;
71343;SDS011;59146;43.850;25.948;2023-03-03T00:08:45;49.70;;;30.25;;
71343;SDS011;59146;43.850;25.948;2023-03-03T00:11:11;55.50;;;31.90;;
71343;SDS011;59146;43.850;25.948;2023-03-03T00:13:40;48.75;;;28.60;;
71343;SDS011;59146;43.850;25.948;2023-03-03T00:16:42;45.75;;;29.08;;
71343;SDS011;59146;43.850;25.948;2023-03-03T00:19:11;44.45;;;27.50;;
71343;SDS011;59146;43.850;25.948;2023-03-03T00:21:43;50.15;;;29.27;;
71343;SDS011;59146;43.850;25.948;2023-03-03T00:26:39;54.45;;;28.88;;
71343;SDS011;59146;43.850;25.948;2023-03-03T00:29:23;53.97;;;28.98;;
71343;SDS011;59146;43.850;25.948;2023-03-03T00:31:50;52.70;;;29.25;;
71343;SDS011;59146;43.850;25.948;2023-03-03T00:36:41;49.88;;;29.73;;
71343;SDS011;59146;43.850;25.948;2023-03-03T00:42:11;51.58;;;28.05;;
71343;SDS011;59146;43.850;25.948;2023-03-03T00:47:24;51.10;;;27.70;;
71343;SDS011;59146;43.850;25.948;2023-03-03T00:50:37;49.90;;;27.98;;
71343;SDS011;59146;43.850;25.948;2023-03-03T00:53:00;50.88;;;29.83;;
71343;SDS011;59146;43.850;25.948;2023-03-03T00:55:27;54.22;;;29.75;;
71343;SDS011;59146;43.850;25.948;2023-03-03T00:57:53;47.10;;;28.92;;
71343;SDS011;59146;43.850;25.948;2023-03-03T01:00:19;48.80;;;28.52;;
71343;SDS011;59146;43.850;25.948;2023-03-03T01:02:44;51.38;;;29.27;;
71343;SDS011;59146;43.850;25.948;2023-03-03T01:05:11;49.17;;;28.67;;
71343;SDS011;59146;43.850;25.948;2023-03-03T01:07:37;54.13;;;29.52;;
71343;SDS011;59146;43.850;25.948;2023-03-03T01:10:03;51.03;;;29.92;;
71343;SDS011;59146;43.850;25.948;2023-03-03T01:12:29;48.67;;;28.20;;
71343;SDS011;59146;43.850;25.948;2023-03-03T01:14:54;48.50;;;29.25;;
71343;SDS011;59146;43.850;25.948;2023-03-03T01:17:20;44.30;;;26.75;;
71343;SDS011;59146;43.850;25.948;2023-03-03T01:19:45;55.05;;;28.80;;
71343;SDS011;59146;43.850;25.948;2023-03-03T01:22:11;52.67;;;28.67;;
71343;SDS011;59146;43.850;25.948;2023-03-03T01:24:36;55.17;;;30.15;;
71343;SDS011;59146;43.850;25.948;2023-03-03T01:27:02;56.83;;;31.63;;
71343;SDS011;59146;43.850;25.948;2023-03-03T01:29:27;54.30;;;30.92;;
71343;SDS011;59146;43.850;25.948;2023-03-03T01:31:52;54.97;;;30.42;;
71343;SDS011;59146;43.850;25.948;2023-03-03T01:34:18;52.03;;;30.40;;
71343;SDS011;59146;43.850;25.948;2023-03-03T01:36:44;55.00;;;30.25;;
71343;SDS011;59146;43.850;25.948;2023-03-03T01:39:09;51.00;;;29.30;;
71343;SDS011;59146;43.850;25.948;2023-03-03T01:41:35;50.33;;;30.15;;
71343;SDS011;59146;43.850;25.948;2023-03-03T01:44:01;54.90;;;29.92;;
71343;SDS011;59146;43.850;25.948;2023-03-03T01:46:36;51.13;;;29.27;;
71343;SDS011;59146;43.850;25.948;2023-03-03T01:49:43;55.92;;;31.40;;
71343;SDS011;59146;43.850;25.948;2023-03-03T01:52:35;53.67;;;30.23;;
71343;SDS011;59146;43.850;25.948;2023-03-03T01:55:00;50.65;;;29.25;;
71343;SDS011;59146;43.850;25.948;2023-03-03T01:57:30;55.95;;;30.65;;
71343;SDS011;59146;43.850;25.948;2023-03-03T02:00:01;53.70;;;30.80;;
71343;SDS011;59146;43.850;25.948;2023-03-03T02:02:29;53.25;;;30.33;;
71343;SDS011;59146;43.850;25.948;2023-03-03T02:04:56;61.17;;;32.03;;
71343;SDS011;59146;43.850;25.948;2023-03-03T02:07:21;49.10;;;30.40;;
71343;SDS011;59146;43.850;25.948;2023-03-03T02:09:54;57.80;;;31.05;;
71343;SDS011;59146;43.850;25.948;2023-03-03T02:12:33;51.17;;;29.20;;
71343;SDS011;59146;43.850;25.948;2023-03-03T02:15:19;52.03;;;31.52;;
71343;SDS011;59146;43.850;25.948;2023-03-03T02:17:46;53.63;;;29.65;;
71343;SDS011;59146;43.850;25.948;2023-03-03T02:23:08;53.35;;;29.17;;
71343;SDS011;59146;43.850;25.948;2023-03-03T02:25:44;55.03;;;31.00;;
71343;SDS011;59146;43.850;25.948;2023-03-03T02:28:17;54.88;;;28.95;;
71343;SDS011;59146;43.850;25.948;2023-03-03T02:30:43;52.33;;;30.25;;
71343;SDS011;59146;43.850;25.948;2023-03-03T02:33:08;52.75;;;29.98;;
71343;SDS011;59146;43.850;25.948;2023-03-03T02:35:35;50.83;;;29.38;;
71343;SDS011;59146;43.850;25.948;2023-03-03T02:40:41;47.03;;;30.08;;
71343;SDS011;59146;43.850;25.948;2023-03-03T02:43:13;56.92;;;30.88;;
71343;SDS011;59146;43.850;25.948;2023-03-03T02:45:44;42.55;;;24.98;;
71343;SDS011;59146;43.850;25.948;2023-03-03T02:48:10;52.33;;;30.08;;
71343;SDS011;59146;43.850;25.948;2023-03-03T02:50:35;50.42;;;29.58;;
71343;SDS011;59146;43.850;25.948;2023-03-03T02:53:01;54.22;;;30.40;;
71343;SDS011;59146;43.850;25.948;2023-03-03T02:55:27;48.15;;;26.85;;
71343;SDS011;59146;43.850;25.948;2023-03-03T02:57:52;53.22;;;28.58;;
71343;SDS011;59146;43.850;25.948;2023-03-03T03:00:17;53.40;;;29.23;;
71343;SDS011;59146;43.850;25.948;2023-03-03T03:02:43;51.50;;;30.35;;
71343;SDS011;59146;43.850;25.948;2023-03-03T03:05:08;49.63;;;30.50;;
71343;SDS011;59146;43.850;25.948;2023-03-03T03:07:34;57.65;;;31.10;;
71343;SDS011;59146;43.850;25.948;2023-03-03T03:09:59;59.72;;;29.52;;
71343;SDS011;59146;43.850;25.948;2023-03-03T03:12:25;53.28;;;30.42;;
71343;SDS011;59146;43.850;25.948;2023-03-03T03:14:50;49.95;;;29.77;;
71343;SDS011;59146;43.850;25.948;2023-03-03T03:17:15;55.60;;;30.33;;
71343;SDS011;59146;43.850;25.948;2023-03-03T03:19:41;52.08;;;30.35;;
71343;SDS011;59146;43.850;25.948;2023-03-03T03:22:06;47.78;;;29.75;;
71343;SDS011;59146;43.850;25.948;2023-03-03T03:24:32;53.35;;;30.63;;
71343;SDS011;59146;43.850;25.948;2023-03-03T03:26:57;55.30;;;30.85;;
71343;SDS011;59146;43.850;25.948;2023-03-03T03:29:23;57.90;;;31.73;;
71343;SDS011;59146;43.850;25.948;2023-03-03T03:31:48;51.17;;;30.63;;
71343;SDS011;59146;43.850;25.948;2023-03-03T03:34:13;55.08;;;29.92;;
71343;SDS011;59146;43.850;25.948;2023-03-03T03:36:39;49.60;;;29.65;;
71343;SDS011;59146;43.850;25.948;2023-03-03T03:39:04;54.42;;;30.50;;
71343;SDS011;59146;43.850;25.948;2023-03-03T03:41:30;53.83;;;32.25;;
71343;SDS011;59146;43.850;25.948;2023-03-03T03:43:56;52.47;;;32.55;;
71343;SDS011;59146;43.850;25.948;2023-03-03T03:46:21;53.58;;;30.50;;
71343;SDS011;59146;43.850;25.948;2023-03-03T03:48:47;58.05;;;32.88;;
71343;SDS011;59146;43.850;25.948;2023-03-03T03:51:12;57.85;;;30.30;;
71343;SDS011;59146;43.850;25.948;2023-03-03T03:53:38;60.75;;;33.08;;
71343;SDS011;59146;43.850;25.948;2023-03-03T03:56:03;57.95;;;32.92;;
71343;SDS011;59146;43.850;25.948;2023-03-03T03:58:29;56.13;;;31.85;;
71343;SDS011;59146;43.850;25.948;2023-03-03T04:00:54;56.50;;;31.55;;
71343;SDS011;59146;43.850;25.948;2023-03-03T04:03:20;57.33;;;32.17;;
71343;SDS011;59146;43.850;25.948;2023-03-03T04:05:45;54.30;;;30.92;;
71343;SDS011;59146;43.850;25.948;2023-03-03T04:08:11;52.50;;;32.13;;
71343;SDS011;59146;43.850;25.948;2023-03-03T04:10:37;56.22;;;32.22;;
71343;SDS011;59146;43.850;25.948;2023-03-03T04:13:02;56.13;;;32.72;;
71343;SDS011;59146;43.850;25.948;2023-03-03T04:15:28;50.92;;;31.60;;
71343;SDS011;59146;43.850;25.948;2023-03-03T04:17:53;54.28;;;32.45;;
71343;SDS011;59146;43.850;25.948;2023-03-03T04:20:19;55.75;;;31.77;;
71343;SDS011;59146;43.850;25.948;2023-03-03T04:22:44;55.65;;;31.67;;
71343;SDS011;59146;43.850;25.948;2023-03-03T04:25:14;54.85;;;32.03;;
71343;SDS011;59146;43.850;25.948;2023-03-03T04:27:40;60.38;;;34.25;;
71343;SDS011;59146;43.850;25.948;2023-03-03T04:30:07;58.53;;;33.72;;
71343;SDS011;59146;43.850;25.948;2023-03-03T04:32:34;61.38;;;33.03;;
71343;SDS011;59146;43.850;25.948;2023-03-03T04:34:59;58.40;;;32.75;;
71343;SDS011;59146;43.850;25.948;2023-03-03T04:37:25;55.92;;;32.42;;
71343;SDS011;59146;43.850;25.948;2023-03-03T04:39:51;63.03;;;34.53;;
71343;SDS011;59146;43.850;25.948;2023-03-03T04:42:16;58.55;;;33.03;;
71343;SDS011;59146;43.850;25.948;2023-03-03T04:44:42;62.75;;;34.83;;
71343;SDS011;59146;43.850;25.948;2023-03-03T04:47:08;54.40;;;33.22;;
71343;SDS011;59146;43.850;25.948;2023-03-03T04:49:33;60.33;;;34.60;;
71343;SDS011;59146;43.850;25.948;2023-03-03T04:51:59;59.85;;;32.78;;
71343;SDS011;59146;43.850;25.948;2023-03-03T04:54:24;60.17;;;33.85;;
71343;SDS011;59146;43.850;25.948;2023-03-03T04:56:49;57.17;;;33.58;;
71343;SDS011;59146;43.850;25.948;2023-03-03T04:59:15;59.67;;;34.35;;
71343;SDS011;59146;43.850;25.948;2023-03-03T05:01:40;63.17;;;34.70;;
71343;SDS011;59146;43.850;25.948;2023-03-03T05:04:06;56.95;;;33.13;;
71343;SDS011;59146;43.850;25.948;2023-03-03T05:06:32;65.35;;;31.98;;
71343;SDS011;59146;43.850;25.948;2023-03-03T05:08:57;52.05;;;30.25;;
71343;SDS011;59146;43.850;25.948;2023-03-03T05:11:22;64.35;;;33.58;;
71343;SDS011;59146;43.850;25.948;2023-03-03T05:13:48;59.03;;;33.83;;
71343;SDS011;59146;43.850;25.948;2023-03-03T05:16:13;55.15;;;32.47;;
71343;SDS011;59146;43.850;25.948;2023-03-03T05:18:39;51.83;;;31.27;;
71343;SDS011;59146;43.850;25.948;2023-03-03T05:21:04;55.13;;;32.95;;
71343;SDS011;59146;43.850;25.948;2023-03-03T05:23:30;60.65;;;34.22;;
71343;SDS011;59146;43.850;25.948;2023-03-03T05:25:55;57.60;;;34.97;;
71343;SDS011;59146;43.850;25.948;2023-03-03T05:28:21;59.88;;;34.10;;
71343;SDS011;59146;43.850;25.948;2023-03-03T05:30:46;59.97;;;34.22;;
71343;SDS011;59146;43.850;25.948;2023-03-03T05:33:13;54.72;;;32.00;;
71343;SDS011;59146;43.850;25.948;2023-03-03T05:35:39;62.78;;;36.15;;
71343;SDS011;59146;43.850;25.948;2023-03-03T05:38:04;59.42;;;35.58;;
71343;SDS011;59146;43.850;25.948;2023-03-03T05:40:30;57.53;;;34.15;;
71343;SDS011;59146;43.850;25.948;2023-03-03T05:42:56;62.33;;;34.58;;
71343;SDS011;59146;43.850;25.948;2023-03-03T05:45:22;53.25;;;34.25;;
71343;SDS011;59146;43.850;25.948;2023-03-03T05:47:49;55.25;;;34.00;;
71343;SDS011;59146;43.850;25.948;2023-03-03T05:50:15;52.13;;;31.85;;
71343;SDS011;59146;43.850;25.948;2023-03-03T05:52:40;63.05;;;32.92;;
71343;SDS011;59146;43.850;25.948;2023-03-03T05:55:06;58.08;;;32.72;;
71343;SDS011;59146;43.850;25.948;2023-03-03T05:57:31;58.92;;;33.28;;
71343;SDS011;59146;43.850;25.948;2023-03-03T05:59:57;59.75;;;35.00;;
71343;SDS011;59146;43.850;25.948;2023-03-03T06:02:22;57.45;;;33.83;;
71343;SDS011;59146;43.850;25.948;2023-03-03T06:04:48;61.72;;;32.42;;
71343;SDS011;59146;43.850;25.948;2023-03-03T06:07:13;58.92;;;34.75;;
71343;SDS011;59146;43.850;25.948;2023-03-03T06:09:38;59.83;;;34.70;;
71343;SDS011;59146;43.850;25.948;2023-03-03T06:12:04;65.18;;;36.80;;
71343;SDS011;59146;43.850;25.948;2023-03-03T06:14:30;61.55;;;34.03;;
71343;SDS011;59146;43.850;25.948;2023-03-03T06:16:55;66.43;;;35.47;;
71343;SDS011;59146;43.850;25.948;2023-03-03T06:19:22;65.85;;;36.10;;
71343;SDS011;59146;43.850;25.948;2023-03-03T06:21:48;60.25;;;34.92;;
71343;SDS011;59146;43.850;25.948;2023-03-03T06:24:13;64.47;;;36.78;;
71343;SDS011;59146;43.850;25.948;2023-03-03T06:26:39;63.08;;;35.15;;
71343;SDS011;59146;43.850;25.948;2023-03-03T06:29:04;58.70;;;35.15;;
71343;SDS011;59146;43.850;25.948;2023-03-03T06:31:29;60.85;;;35.30;;
71343;SDS011;59146;43.850;25.948;2023-03-03T06:33:55;60.08;;;33.67;;
71343;SDS011;59146;43.850;25.948;2023-03-03T06:36:20;54.00;;;32.50;;
71343;SDS011;59146;43.850;25.948;2023-03-03T06:38:46;54.88;;;33.20;;
71343;SDS011;59146;43.850;25.948;2023-03-03T06:41:11;56.78;;;33.25;;
71343;SDS011;59146;43.850;25.948;2023-03-03T06:43:37;63.97;;;35.00;;
71343;SDS011;59146;43.850;25.948;2023-03-03T06:46:03;64.53;;;34.47;;
71343;SDS011;59146;43.850;25.948;2023-03-03T06:48:29;62.28;;;35.50;;
71343;SDS011;59146;43.850;25.948;2023-03-03T06:50:56;67.85;;;37.42;;
71343;SDS011;59146;43.850;25.948;2023-03-03T06:53:22;61.55;;;34.78;;
71343;SDS011;59146;43.850;25.948;2023-03-03T06:55:50;57.20;;;34.03;;
71343;SDS011;59146;43.850;25.948;2023-03-03T06:58:16;66.63;;;35.33;;
71343;SDS011;59146;43.850;25.948;2023-03-03T07:00:48;57.70;;;35.75;;
71343;SDS011;59146;43.850;25.948;2023-03-03T07:03:22;60.92;;;36.45;;
71343;SDS011;59146;43.850;25.948;2023-03-03T07:05:49;59.85;;;36.22;;
71343;SDS011;59146;43.850;25.948;2023-03-03T07:08:19;51.05;;;33.85;;
71343;SDS011;59146;43.850;25.948;2023-03-03T07:10:47;59.80;;;35.63;;
71343;SDS011;59146;43.850;25.948;2023-03-03T07:13:18;53.15;;;33.15;;
71343;SDS011;59146;43.850;25.948;2023-03-03T07:15:47;57.55;;;33.38;;
71343;SDS011;59146;43.850;25.948;2023-03-03T07:20:51;59.17;;;35.85;;
71343;SDS011;59146;43.850;25.948;2023-03-03T07:23:27;50.95;;;33.95;;
71343;SDS011;59146;43.850;25.948;2023-03-03T07:26:07;54.17;;;34.15;;
71343;SDS011;59146;43.850;25.948;2023-03-03T07:28:35;53.17;;;33.05;;
71343;SDS011;59146;43.850;25.948;2023-03-03T07:31:14;56.58;;;34.60;;
71343;SDS011;59146;43.850;25.948;2023-03-03T07:33:49;54.75;;;34.58;;
71343;SDS011;59146;43.850;25.948;2023-03-03T07:36:31;55.95;;;35.25;;
71343;SDS011;59146;43.850;25.948;2023-03-03T07:39:00;55.40;;;34.50;;
71343;SDS011;59146;43.850;25.948;2023-03-03T07:42:02;55.78;;;34.90;;
71343;SDS011;59146;43.850;25.948;2023-03-03T07:44:36;60.20;;;35.33;;
71343;SDS011;59146;43.850;25.948;2023-03-03T07:47:14;56.30;;;35.17;;
71343;SDS011;59146;43.850;25.948;2023-03-03T07:49:44;56.97;;;35.85;;
71343;SDS011;59146;43.850;25.948;2023-03-03T07:52:20;60.45;;;36.65;;
71343;SDS011;59146;43.850;25.948;2023-03-03T07:54:53;58.23;;;35.93;;
71343;SDS011;59146;43.850;25.948;2023-03-03T08:00:00;61.78;;;37.08;;
71343;SDS011;59146;43.850;25.948;2023-03-03T08:13:23;55.75;;;35.80;;
71343;SDS011;59146;43.850;25.948;2023-03-03T08:16:00;57.60;;;36.83;;
71343;SDS011;59146;43.850;25.948;2023-03-03T08:18:29;70.22;;;37.28;;
71343;SDS011;59146;43.850;25.948;2023-03-03T08:21:10;58.88;;;37.30;;
71343;SDS011;59146;43.850;25.948;2023-03-03T08:23:39;67.80;;;40.53;;
71343;SDS011;59146;43.850;25.948;2023-03-03T08:26:04;61.35;;;38.10;;
71343;SDS011;59146;43.850;25.948;2023-03-03T08:28:30;58.75;;;38.00;;
71343;SDS011;59146;43.850;25.948;2023-03-03T08:30:56;61.83;;;37.25;;
71343;SDS011;59146;43.850;25.948;2023-03-03T08:33:21;66.32;;;37.05;;
71343;SDS011;59146;43.850;25.948;2023-03-03T08:35:47;57.00;;;35.50;;
71343;SDS011;59146;43.850;25.948;2023-03-03T08:38:13;55.33;;;36.92;;
71343;SDS011;59146;43.850;25.948;2023-03-03T08:40:40;57.28;;;35.90;;
71343;SDS011;59146;43.850;25.948;2023-03-03T08:43:06;58.53;;;37.97;;
71343;SDS011;59146;43.850;25.948;2023-03-03T08:45:32;57.58;;;37.28;;
71343;SDS011;59146;43.850;25.948;2023-03-03T08:47:58;68.57;;;38.38;;
71343;SDS011;59146;43.850;25.948;2023-03-03T08:50:24;57.97;;;37.15;;
71343;SDS011;59146;43.850;25.948;2023-03-03T08:52:50;64.32;;;35.63;;
71343;SDS011;59146;43.850;25.948;2023-03-03T08:55:16;58.67;;;37.20;;
71343;SDS011;59146;43.850;25.948;2023-03-03T08:57:42;59.08;;;37.00;;
71343;SDS011;59146;43.850;25.948;2023-03-03T09:00:09;57.17;;;36.17;;
71343;SDS011;59146;43.850;25.948;2023-03-03T09:02:37;61.97;;;33.25;;
71343;SDS011;59146;43.850;25.948;2023-03-03T09:05:03;56.70;;;34.95;;
71343;SDS011;59146;43.850;25.948;2023-03-03T09:07:29;52.22;;;34.40;;
71343;SDS011;59146;43.850;25.948;2023-03-03T09:09:55;62.00;;;36.50;;
71343;SDS011;59146;43.850;25.948;2023-03-03T09:12:28;52.65;;;34.55;;
71343;SDS011;59146;43.850;25.948;2023-03-03T09:14:57;64.07;;;34.72;;
71343;SDS011;59146;43.850;25.948;2023-03-03T09:17:31;49.90;;;33.33;;
71343;SDS011;59146;43.850;25.948;2023-03-03T09:19:59;52.50;;;34.15;;
71343;SDS011;59146;43.850;25.948;2023-03-03T09:22:27;52.95;;;34.72;;
71343;SDS011;59146;43.850;25.948;2023-03-03T09:24:53;53.55;;;33.97;;
71343;SDS011;59146;43.850;25.948;2023-03-03T09:30:00;50.38;;;34.33;;
71343;SDS011;59146;43.850;25.948;2023-03-03T09:32:40;53.58;;;34.00;;
71343;SDS011;59146;43.850;25.948;2023-03-03T09:46:35;58.88;;;34.50;;
71343;SDS011;59146;43.850;25.948;2023-03-03T09:57:33;52.53;;;34.90;;
71343;SDS011;59146;43.850;25.948;2023-03-03T10:18:54;55.03;;;36.00;;
71343;SDS011;59146;43.850;25.948;2023-03-03T10:37:53;58.70;;;35.90;;
71343;SDS011;59146;43.850;25.948;2023-03-03T10:54:21;56.17;;;35.65;;
71343;SDS011;59146;43.850;25.948;2023-03-03T10:57:25;56.53;;;35.05;;
71343;SDS011;59146;43.850;25.948;2023-03-03T11:03:29;54.78;;;34.25;;
71343;SDS011;59146;43.850;25.948;2023-03-03T11:05:57;59.63;;;35.15;;
71343;SDS011;59146;43.850;25.948;2023-03-03T11:08:26;60.72;;;36.00;;
71343;SDS011;59146;43.850;25.948;2023-03-03T11:16:34;64.13;;;35.25;;
71343;SDS011;59146;43.850;25.948;2023-03-03T11:19:24;60.50;;;35.88;;
71343;SDS011;59146;43.850;25.948;2023-03-03T11:22:11;54.60;;;35.88;;
71343;SDS011;59146;43.850;25.948;2023-03-03T11:49:31;52.72;;;33.80;;
71343;SDS011;59146;43.850;25.948;2023-03-03T11:55:19;52.92;;;33.85;;
71343;SDS011;59146;43.850;25.948;2023-03-03T11:58:30;51.55;;;33.83;;
71343;SDS011;59146;43.850;25.948;2023-03-03T12:03:30;57.10;;;34.22;;
71343;SDS011;59146;43.850;25.948;2023-03-03T12:17:05;52.83;;;34.17;;
71343;SDS011;59146;43.850;25.948;2023-03-03T12:33:13;60.40;;;36.95;;
71343;SDS011;59146;43.850;25.948;2023-03-03T12:38:22;54.30;;;35.28;;
71343;SDS011;59146;43.850;25.948;2023-03-03T12:46:38;60.50;;;37.17;;
71343;SDS011;59146;43.850;25.948;2023-03-03T12:49:15;62.28;;;35.58;;
71343;SDS011;59146;43.850;25.948;2023-03-03T12:56:39;63.00;;;38.55;;
71343;SDS011;59146;43.850;25.948;2023-03-03T12:59:24;65.07;;;40.80;;
71343;SDS011;59146;43.850;25.948;2023-03-03T13:30:57;63.55;;;38.00;;
71343;SDS011;59146;43.850;25.948;2023-03-03T13:33:31;66.65;;;39.33;;
71343;SDS011;59146;43.850;25.948;2023-03-03T13:36:17;56.97;;;37.45;;
71343;SDS011;59146;43.850;25.948;2023-03-03T13:38:47;65.13;;;38.17;;
71343;SDS011;59146;43.850;25.948;2023-03-03T13:41:21;59.38;;;37.30;;
71343;SDS011;59146;43.850;25.948;2023-03-03T13:43:49;68.18;;;38.50;;
71343;SDS011;59146;43.850;25.948;2023-03-03T13:49:11;58.13;;;35.80;;
71343;SDS011;59146;43.850;25.948;2023-03-03T14:05:16;58.60;;;36.38;;
71343;SDS011;59146;43.850;25.948;2023-03-03T14:07:58;62.08;;;36.95;;
71343;SDS011;59146;43.850;25.948;2023-03-03T14:10:31;62.42;;;39.42;;
71343;SDS011;59146;43.850;25.948;2023-03-03T14:16:09;65.47;;;38.63;;
71343;SDS011;59146;43.850;25.948;2023-03-03T14:18:53;58.53;;;37.67;;
71343;SDS011;59146;43.850;25.948;2023-03-03T14:21:29;65.25;;;40.72;;
71343;SDS011;59146;43.850;25.948;2023-03-03T14:26:48;57.88;;;38.95;;
71343;SDS011;59146;43.850;25.948;2023-03-03T14:29:20;67.05;;;40.35;;
71343;SDS011;59146;43.850;25.948;2023-03-03T14:31:46;70.05;;;40.60;;
71343;SDS011;59146;43.850;25.948;2023-03-03T14:37:09;70.32;;;42.88;;
71343;SDS011;59146;43.850;25.948;2023-03-03T14:45:20;80.80;;;43.55;;
71343;SDS011;59146;43.850;25.948;2023-03-03T14:50:57;70.43;;;43.55;;
71343;SDS011;59146;43.850;25.948;2023-03-03T14:53:37;73.38;;;42.85;;
71343;SDS011;59146;43.850;25.948;2023-03-03T14:56:51;71.30;;;43.75;;
71343;SDS011;59146;43.850;25.948;2023-03-03T15:01:42;67.28;;;42.63;;
71343;SDS011;59146;43.850;25.948;2023-03-03T15:06:42;70.97;;;44.58;;
71343;SDS011;59146;43.850;25.948;2023-03-03T15:14:52;70.28;;;42.53;;
71343;SDS011;59146;43.850;25.948;2023-03-03T15:17:28;68.78;;;40.90;;
71343;SDS011;59146;43.850;25.948;2023-03-03T15:28:13;69.15;;;43.13;;
71343;SDS011;59146;43.850;25.948;2023-03-03T15:30:54;64.65;;;42.75;;
71343;SDS011;59146;43.850;25.948;2023-03-03T15:36:38;70.15;;;42.90;;
71343;SDS011;59146;43.850;25.948;2023-03-03T15:42:06;65.43;;;41.55;;
71343;SDS011;59146;43.850;25.948;2023-03-03T15:44:45;63.05;;;40.20;;
71343;SDS011;59146;43.850;25.948;2023-03-03T15:50:03;65.60;;;42.42;;
71343;SDS011;59146;43.850;25.948;2023-03-03T16:00:24;71.07;;;40.97;;
71343;SDS011;59146;43.850;25.948;2023-03-03T16:02:57;68.30;;;41.92;;
71343;SDS011;59146;43.850;25.948;2023-03-03T16:05:32;62.70;;;39.47;;
71343;SDS011;59146;43.850;25.948;2023-03-03T16:10:53;68.38;;;42.17;;
71343;SDS011;59146;43.850;25.948;2023-03-03T16:26:59;71.25;;;42.40;;
71343;SDS011;59146;43.850;25.948;2023-03-03T16:35:20;73.95;;;45.50;;
71343;SDS011;59146;43.850;25.948;2023-03-03T16:40:31;77.07;;;47.45;;
71343;SDS011;59146;43.850;25.948;2023-03-03T16:43:09;78.30;;;48.10;;
71343;SDS011;59146;43.850;25.948;2023-03-03T16:45:38;77.35;;;48.65;;
71343;SDS011;59146;43.850;25.948;2023-03-03T16:51:02;84.30;;;50.65;;
71343;SDS011;59146;43.850;25.948;2023-03-03T17:04:30;84.53;;;52.30;;
71343;SDS011;59146;43.850;25.948;2023-03-03T17:07:11;86.88;;;51.38;;
71343;SDS011;59146;43.850;25.948;2023-03-03T17:17:57;97.85;;;59.97;;
71343;SDS011;59146;43.850;25.948;2023-03-03T17:20:42;99.07;;;58.67;;
71343;SDS011;59146;43.850;25.948;2023-03-03T17:29:08;98.55;;;58.58;;
71343;SDS011;59146;43.850;25.948;2023-03-03T17:45:54;90.65;;;56.83;;
71343;SDS011;59146;43.850;25.948;2023-03-03T17:53:34;90.28;;;55.88;;
71343;SDS011;59146;43.850;25.948;2023-03-03T17:56:20;90.53;;;56.38;;
71343;SDS011;59146;43.850;25.948;2023-03-03T18:04:22;91.28;;;53.25;;
71343;SDS011;59146;43.850;25.948;2023-03-03T18:22:48;93.72;;;55.83;;
71343;SDS011;59146;43.850;25.948;2023-03-03T18:28:14;95.90;;;57.17;;
71343;SDS011;59146;43.850;25.948;2023-03-03T18:30:57;89.45;;;55.55;;
71343;SDS011;59146;43.850;25.948;2023-03-03T18:39:02;98.32;;;57.25;;
71343;SDS011;59146;43.850;25.948;2023-03-03T18:41:30;98.85;;;60.00;;
71343;SDS011;59146;43.850;25.948;2023-03-03T18:44:22;98.50;;;57.47;;
71343;SDS011;59146;43.850;25.948;2023-03-03T18:46:52;95.15;;;57.55;;
71343;SDS011;59146;43.850;25.948;2023-03-03T18:49:28;106.57;;;60.97;;
71343;SDS011;59146;43.850;25.948;2023-03-03T18:53:28;104.00;;;59.75;;
71343;SDS011;59146;43.850;25.948;2023-03-03T18:55:49;104.72;;;60.70;;
71343;SDS011;59146;43.850;25.948;2023-03-03T19:03:27;117.90;;;63.58;;
71343;SDS011;59146;43.850;25.948;2023-03-03T19:05:59;113.13;;;64.85;;
71343;SDS011;59146;43.850;25.948;2023-03-03T19:23:47;98.00;;;59.10;;
71343;SDS011;59146;43.850;25.948;2023-03-03T19:26:48;96.35;;;57.22;;
71343;SDS011;59146;43.850;25.948;2023-03-03T19:29:23;90.35;;;54.75;;
71343;SDS011;59146;43.850;25.948;2023-03-03T19:38:13;105.70;;;59.45;;
71343;SDS011;59146;43.850;25.948;2023-03-03T19:41:26;103.65;;;57.83;;
71343;SDS011;59146;43.850;25.948;2023-03-03T19:52:06;93.60;;;54.97;;
71343;SDS011;59146;43.850;25.948;2023-03-03T20:00:11;98.55;;;57.78;;
71343;SDS011;59146;43.850;25.948;2023-03-03T20:05:31;101.65;;;58.72;;
71343;SDS011;59146;43.850;25.948;2023-03-03T20:13:32;95.95;;;57.13;;
71343;SDS011;59146;43.850;25.948;2023-03-03T20:29:51;105.70;;;59.75;;
71343;SDS011;59146;43.850;25.948;2023-03-03T20:43:35;98.25;;;58.72;;
71343;SDS011;59146;43.850;25.948;2023-03-03T20:46:12;97.97;;;58.35;;
71343;SDS011;59146;43.850;25.948;2023-03-03T21:04:39;105.68;;;60.55;;
71343;SDS011;59146;43.850;25.948;2023-03-03T21:07:05;102.93;;;58.58;;
71343;SDS011;59146;43.850;25.948;2023-03-03T21:09:31;95.20;;;58.28;;
71343;SDS011;59146;43.850;25.948;2023-03-03T21:12:48;95.47;;;55.80;;
71343;SDS011;59146;43.850;25.948;2023-03-03T21:15:02;98.80;;;56.70;;
71343;SDS011;59146;43.850;25.948;2023-03-03T21:17:31;102.20;;;60.42;;
71343;SDS011;59146;43.850;25.948;2023-03-03T21:20:16;101.68;;;58.38;;
71343;SDS011;59146;43.850;25.948;2023-03-03T21:22:54;100.75;;;58.72;;
71343;SDS011;59146;43.850;25.948;2023-03-03T21:38:45;108.15;;;61.08;;
71343;SDS011;59146;43.850;25.948;2023-03-03T21:41:11;104.05;;;61.58;;
71343;SDS011;59146;43.850;25.948;2023-03-03T21:43:42;105.05;;;60.63;;
71343;SDS011;59146;43.850;25.948;2023-03-03T21:48:39;97.35;;;59.28;;
71343;SDS011;59146;43.850;25.948;2023-03-03T21:51:05;116.53;;;63.78;;
71343;SDS011;59146;43.850;25.948;2023-03-03T21:53:31;109.03;;;61.13;;
71343;SDS011;59146;43.850;25.948;2023-03-03T21:55:56;103.80;;;62.00;;
71343;SDS011;59146;43.850;25.948;2023-03-03T21:58:22;107.53;;;62.20;;
71343;SDS011;59146;43.850;25.948;2023-03-03T22:00:47;111.60;;;61.47;;
71343;SDS011;59146;43.850;25.948;2023-03-03T22:03:13;108.28;;;63.53;;
71343;SDS011;59146;43.850;25.948;2023-03-03T22:05:40;108.15;;;59.40;;
71343;SDS011;59146;43.850;25.948;2023-03-03T22:08:05;99.97;;;59.17;;
71343;SDS011;59146;43.850;25.948;2023-03-03T22:10:31;107.30;;;59.10;;
71343;SDS011;59146;43.850;25.948;2023-03-03T22:12:57;100.18;;;58.65;;
71343;SDS011;59146;43.850;25.948;2023-03-03T22:15:22;99.97;;;58.55;;
71343;SDS011;59146;43.850;25.948;2023-03-03T22:17:48;98.82;;;59.10;;
71343;SDS011;59146;43.850;25.948;2023-03-03T22:20:13;102.60;;;59.58;;
71343;SDS011;59146;43.850;25.948;2023-03-03T22:22:42;101.63;;;59.15;;
71343;SDS011;59146;43.850;25.948;2023-03-03T22:25:08;104.93;;;59.72;;
71343;SDS011;59146;43.850;25.948;2023-03-03T22:27:34;100.40;;;58.10;;
71343;SDS011;59146;43.850;25.948;2023-03-03T22:30:00;105.35;;;59.60;;
71343;SDS011;59146;43.850;25.948;2023-03-03T22:32:25;98.00;;;58.80;;
71343;SDS011;59146;43.850;25.948;2023-03-03T22:34:51;98.43;;;58.42;;